• Join FlightAware (Why Join?)
  • Login
  • US Flag 
09:10PM EDT


 

Airport Tracker/Info


-or-


 

Live Flight TrackerFlight Track Log ✈ N828BR ✈ 23-May-2013 ✈ KBWI - KIAG

Flight Track Log - Related Links

Times and Time Zones

All times are in EDT time to prevent confusion due to time zone crossing. See the N828BR flight status page for this flight to view local times or setup timezone preferences in your user account.

Time Position Orientation Groundspeed Altitude Reporting Facility
EDT Latitude Longitude Course Direction KTS MPH feet Rate Location/Type
09:50AM 39.2000 -76.6833 322° Northwest 101 116 700  Level Potomac TRACON
09:51AM 39.2333 -76.7000 339° North 118 136 1,200 600 Climbing Potomac TRACON
09:52AM 39.2500 -76.7333 303° West 113 130 1,900 720 Climbing Potomac TRACON
09:53AM 39.2667 -76.7500 322° Northwest 112 129 2,600 660 Climbing Potomac TRACON
09:54AM 39.3000 -76.7833 322° Northwest 108 124 3,200 600 Climbing Potomac TRACON
09:55AM 39.3167 -76.8000 322° Northwest 108 124 3,800 480 Climbing Potomac TRACON
09:56AM 39.3526 -76.8360 322° Northwest  Level FlightAware Approximate
09:56AM 39.3500 -76.7833 21° North 135 155 4,200  Level Potomac TRACON
09:57AM 39.3833 -76.7667 21° North 131 151 4,600 420 Climbing Potomac TRACON
09:58AM 39.4167 -76.7667 360° North 132 152 5,000 420 Climbing Potomac TRACON
09:59AM 39.4500 -76.7500 21° North 139 160 5,500 420 Climbing Potomac TRACON
10:00AM 39.4833 -76.7333 21° North 134 154 5,900 60 Climbing Potomac TRACON
10:02AM 39.5384 -76.7650 322° Northwest  Level Estimated
10:09AM 39.7515 -76.9968 356° North  Level FlightAware Approximate
10:10AM 39.7970 -77.0027 351° North  Level FlightAware Approximate
10:11AM 39.8423 -77.0118 351° North  Level FlightAware Approximate
10:12AM 39.8877 -77.0167 North  Level FlightAware Approximate
10:13AM 39.9335 -77.0167 North  Level FlightAware Approximate
10:14AM 39.9791 -77.0208 354° North  Level FlightAware Approximate
10:15AM 40.0246 -77.0273 354° North  Level FlightAware Approximate
10:16AM 40.0701 -77.0338 354° North  Level FlightAware Approximate
10:17AM 40.1156 -77.0403 354° North  Level FlightAware Approximate
10:18AM 40.1610 -77.0468 354° North  Level FlightAware Approximate
10:19AM 40.2065 -77.0533 354° North  Level FlightAware Approximate
10:20AM 40.2520 -77.0598 354° North  Level FlightAware Approximate
10:21AM 40.2975 -77.0663 354° North  Level FlightAware Approximate
10:22AM 40.3413 -77.0497 17° North  Level FlightAware Approximate
10:23AM 40.3849 -77.0318 17° North  Level FlightAware Approximate
10:24AM 40.4286 -77.0138 17° North  Level FlightAware Approximate
10:25AM 40.4723 -76.9958 17° North  Level FlightAware Approximate
10:26AM 40.5159 -76.9778 17° North  Level FlightAware Approximate
10:27AM 40.5596 -76.9598 17° North  Level FlightAware Approximate
10:28AM 40.6036 -76.9433 14° North  Level FlightAware Approximate
10:29AM 40.6479 -76.9285 14° North  Level FlightAware Approximate
10:29AM 40.5544 -76.9033 10° North 150 173 8,100  Level New York Center
10:30AM 40.6923 -76.9137 14° North  Level FlightAware Approximate
10:30AM 40.5917 -76.9094 353° North 150 173 8,100  Level New York Center
10:31AM 40.7367 -76.8989 14° North  Level FlightAware Approximate
10:31AM 40.6283 -76.9264 341° North 143 165 8,100  Level New York Center
10:32AM 40.7810 -76.8841 14° North  Level FlightAware Approximate
10:32AM 40.6647 -76.9461 338° Northwest 143 165 8,100  Level New York Center
10:33AM 40.8261 -76.8738 10° North  Level FlightAware Approximate
10:33AM 40.6994 -76.9631 340° North 143 165 8,000  Level New York Center
10:34AM 40.7339 -76.9797 340° North 143 165 8,000  Level New York Center
10:35AM 40.7728 -76.9942 344° North 143 165 8,000  Level New York Center
10:36AM 40.8094 -77.0114 340° North 143 165 8,000  Level New York Center
10:37AM 40.8481 -77.0286 341° North 148 170 8,000  Level New York Center
10:38AM 40.8847 -77.0456 341° North 148 170 8,000  Level New York Center
10:39AM 40.9214 -77.0628 340° North 148 170 8,000  Level New York Center
10:40AM 40.9600 -77.0800 341° North 148 170 8,000  Level New York Center
10:41AM 40.9944 -77.0969 340° North 148 170 8,000  Level New York Center
10:42AM 41.0292 -77.1114 343° North 143 165 8,000  Level New York Center
10:43AM 41.0658 -77.1283 341° North 143 165 8,000  Level New York Center
10:44AM 41.1022 -77.1456 340° North 143 165 8,000  Level New York Center
10:45AM 41.1392 -77.1600 344° North 143 165 8,000  Level New York Center
10:46AM 41.1775 -77.1803 338° Northwest 143 165 8,000  Level New York Center
10:47AM 41.2142 -77.1975 341° North 143 165 8,000  Level New York Center
10:48AM 41.2486 -77.2147 339° North 143 165 8,000  Level New York Center
10:49AM 41.2853 -77.2292 344° North 143 165 8,000  Level New York Center
10:51AM 41.3828 -77.2786 339° North 148 170 8,000  Level Cleveland Center
10:52AM 41.4167 -77.2964 339° North 143 165 8,000  Level Cleveland Center
10:53AM 41.4547 -77.3108 344° North 138 159 8,000  Level Cleveland Center
10:54AM 41.4906 -77.3286 340° North 133 153 8,000  Level Cleveland Center
10:55AM 41.5244 -77.3436 342° North 133 153 8,000  Level Cleveland Center
10:56AM 41.5583 -77.3583 342° North 133 153 8,000  Level Cleveland Center
10:57AM 41.5900 -77.3764 337° Northwest 133 153 8,000  Level Cleveland Center
10:58AM 41.6217 -77.3886 344° North 134 154 8,000  Level Cleveland Center
10:59AM 41.6575 -77.4036 343° North 134 154 8,000  Level Cleveland Center
11:00AM 41.6892 -77.4186 341° North 127 146 8,000  Level Cleveland Center
11:01AM 41.7128 -77.4453 320° Northwest 120 138 8,000  Level Cleveland Center
11:02AM 41.7344 -77.4722 317° Northwest 110 127 8,000  Level Cleveland Center
11:03AM 41.7500 -77.5047 303° West 110 127 8,000  Level Cleveland Center
11:04AM 41.7717 -77.5372 312° West 110 127 8,000  Level Cleveland Center
11:05AM 41.7911 -77.5669 311° West 110 127 8,000  Level Cleveland Center
11:06AM 41.8128 -77.5992 312° West 110 127 8,000  Level Cleveland Center
11:07AM 41.8344 -77.6261 317° Northwest 110 127 8,000  Level Cleveland Center
11:08AM 41.8539 -77.6586 309° West 110 127 8,000  Level Cleveland Center
11:09AM 41.8778 -77.6911 315° West 110 127 8,000  Level Cleveland Center
11:10AM 41.9014 -77.7208 317° Northwest 110 127 8,000  Level Cleveland Center
11:11AM 41.9253 -77.7531 315° West 110 127 8,000  Level Cleveland Center
11:12AM 41.9467 -77.7856 312° West 115 132 8,000  Level Cleveland Center
11:13AM 41.9706 -77.8211 312° West 115 132 8,000  Level Cleveland Center
11:14AM 41.9922 -77.8536 312° West 115 132 8,100  Climbing Cleveland Center
11:15AM 42.0139 -77.8861 312° West 115 132 8,100  Level Cleveland Center
11:16AM 42.0375 -77.9217 312° West 120 138 8,100  Level Cleveland Center
11:17AM 42.0592 -77.9542 312° West 120 138 8,100  Level Cleveland Center
11:18AM 42.0828 -77.9839 317° Northwest 120 138 8,100  Level Cleveland Center
11:19AM 42.1064 -78.0139 317° Northwest 115 132 8,100  Level Cleveland Center
11:20AM 42.1361 -78.0350 332° Northwest 115 132 8,100  Level Cleveland Center
11:21AM 42.1697 -78.0478 344° North 120 138 8,100  Level Cleveland Center
11:22AM 42.2075 -78.0575 349° North 126 145 8,100  Level Cleveland Center
11:23AM 42.2453 -78.0700 346° North 131 151 8,100  Level Cleveland Center
11:24AM 42.2808 -78.0797 349° North 131 151 8,100  Level Cleveland Center
11:25AM 42.3167 -78.0897 348° North 126 145 8,100  Level Cleveland Center
11:26AM 42.3544 -78.1022 346° North 126 145 8,100  Level Cleveland Center
11:27AM 42.3900 -78.1119 349° North 126 145 8,100  Level Cleveland Center
11:28AM 42.4275 -78.1106 North 126 145 8,100  Level Cleveland Center
11:29AM 42.4667 -78.0950 16° North 126 145 8,100  Level Cleveland Center
11:30AM 42.5058 -78.0764 19° North 132 152 8,100  Level Cleveland Center
11:31AM 42.5494 -78.0606 15° North 144 166 8,100  Level Cleveland Center
11:32AM 42.5864 -78.0422 20° North 144 166 8,100  Level Cleveland Center
11:33AM 42.6236 -78.0294 14° North 144 166 8,100  Level Cleveland Center
11:34AM 42.6614 -78.0308 358° North 139 160 8,100  Level Cleveland Center
11:36AM 42.7167 -78.0667 335° Northwest 98 113 8,100  Level Buffalo TRACON
11:37AM 42.7333 -78.1000 304° West 103 119 8,100  Level Buffalo TRACON
11:38AM 42.7500 -78.1500 294° West 111 128 8,100 -60 Level Buffalo TRACON
11:39AM 42.7667 -78.1833 304° West 113 130 8,000 -300 Descending Buffalo TRACON
11:40AM 42.7833 -78.2167 304° West 128 147 7,500 -540 Descending Buffalo TRACON
11:41AM 42.8000 -78.2667 294° West 136 157 7,000 -540 Descending Buffalo TRACON
11:42AM 42.8333 -78.3167 312° West 138 159 6,500 -600 Descending Buffalo TRACON
11:43AM 42.8500 -78.3500 304° West 133 153 5,900 -600 Descending Buffalo TRACON
11:44AM 42.8667 -78.4000 294° West 136 157 5,400 -540 Descending Buffalo TRACON
11:45AM 42.8833 -78.4333 304° West 138 159 4,900 -540 Descending Buffalo TRACON
11:46AM 42.9000 -78.4833 294° West 131 151 4,400 -420 Descending Buffalo TRACON
11:47AM 42.9167 -78.5167 304° West 127 146 4,100 -180 Descending Buffalo TRACON
11:48AM 42.9333 -78.5667 294° West 123 142 4,100  Level Buffalo TRACON
11:49AM 42.9667 -78.6000 324° Northwest 123 142 4,100  Level Buffalo TRACON
11:50AM 42.9833 -78.6500 295° West 123 142 4,100  Level Buffalo TRACON
11:51AM 43.0000 -78.6833 304° West 122 140 4,100  Level Buffalo TRACON
11:52AM 43.0167 -78.7167 304° West 122 140 4,100  Level Buffalo TRACON
11:53AM 43.0500 -78.7500 324° Northwest 142 163 4,100 -240 Level Buffalo TRACON
11:54AM 43.0833 -78.7667 340° North 157 181 3,600 -540 Descending Buffalo TRACON
11:55AM 43.1167 -78.8000 324° Northwest 159 183 3,100 -600 Descending Buffalo TRACON
11:56AM 43.1667 -78.8000 360° North 168 193 2,500 -420 Descending Buffalo TRACON
11:57AM 43.1333 -78.7667 144° Southeast 128 147 2,300 -300 Descending Buffalo TRACON
11:58AM 43.1333 -78.8167 270° West 108 124 1,900 -420 Descending Buffalo TRACON